TimeCEST,TemperatureF,Dew PointF,Humidity,Sea Level PressureIn,VisibilityMPH,Wind Direction,Wind SpeedMPH,Gust SpeedMPH,PrecipitationIn,Events,Conditions,WindDirDegrees,DateUTC
12:55 AM,64.4,60.8,88,30.01,6.2,ENE,1.2,-,N/A,,Partly Cloudy,70,2012-10-01 22:55:00
1:55 AM,64.4,59.0,83,29.98,6.2,ENE,2.3,-,N/A,,Partly Cloudy,60,2012-10-01 23:55:00
2:00 AM,64,58,77,30.00,12,ENE,2.3,,,,Scattered Clouds,60,2012-10-02 00:00:00
6:55 AM,62.6,59.0,88,29.98,-9999.0,ENE,3.5,-,N/A,,Clear,60,2012-10-02 04:55:00
7:55 AM,64.4,59.0,83,29.98,6.2,ENE,1.2,-,N/A,,Partly Cloudy,60,2012-10-02 05:55:00
8:00 AM,64,60,82,29.98,12,ENE,1.2,,,,Scattered Clouds,60,2012-10-02 06:00:00
8:55 AM,66.2,60.8,83,29.98,6.2,South,1.2,-,N/A,,Light Drizzle,170,2012-10-02 06:55:00
9:55 AM,68.0,60.8,78,29.98,6.2,Calm,Calm,-,N/A,,Partly Cloudy,0,2012-10-02 07:55:00
11:55 AM,71.6,62.6,73,29.98,6.2,WNW,3.5,-,N/A,,Partly Cloudy,300,2012-10-02 09:55:00
12:55 PM,73.4,64.4,73,29.98,6.2,WNW,5.8,-,N/A,,Partly Cloudy,290,2012-10-02 10:55:00
1:55 PM,73.4,64.4,73,29.98,6.2,NW,2.3,-,N/A,,Partly Cloudy,310,2012-10-02 11:55:00
2:00 PM,73,64,66,29.99,12,NW,2.3,,,,Scattered Clouds,310,2012-10-02 12:00:00
2:55 PM,73.4,60.8,65,29.98,6.2,WNW,5.8,-,N/A,,Partly Cloudy,290,2012-10-02 12:55:00
3:55 PM,75.2,60.8,61,29.98,6.2,West,6.9,-,N/A,,Scattered Clouds,280,2012-10-02 13:55:00
4:26 PM,75.2,62.6,65,29.98,6.2,WNW,6.9,-,N/A,Thunderstorm,Thunderstorm,290,2012-10-02 14:26:00
4:55 PM,73.4,60.8,65,29.98,6.2,NW,4.6,-,N/A,Thunderstorm,Thunderstorm,310,2012-10-02 14:55:00
5:55 PM,68.0,64.4,88,29.98,6.2,NNW,3.5,-,N/A,Rain-Thunderstorm,Light Thunderstorms and Rain,330,2012-10-02 15:55:00
6:55 PM,66.2,60.8,83,30.01,6.2,East,8.1,-,N/A,,Scattered Clouds,90,2012-10-02 16:55:00
7:55 PM,64.4,59.0,83,30.01,6.2,ENE,8.1,-,N/A,Rain,Rain,70,2012-10-02 17:55:00
8:00 PM,64,59,79,30.02,6,ENE,8.1,,,Rain,Light Rain,70,2012-10-02 18:00:00
8:55 PM,64.4,57.2,77,30.01,6.2,ENE,13.8,32.2,N/A,,Scattered Clouds,70,2012-10-02 18:55:00
9:55 PM,64.4,55.4,73,30.04,6.2,ENE,10.4,-,N/A,,Partly Cloudy,60,2012-10-02 19:55:00
10:55 PM,66.2,55.4,68,30.04,6.2,East,11.5,-,N/A,,Partly Cloudy,80,2012-10-02 20:55:00
11:55 PM,66.2,55.4,68,30.04,6.2,East,9.2,-,N/A,,Partly Cloudy,80,2012-10-02 21:55:00